sensor_id;sensor_type;location;lat;lon;timestamp;P1;durP1;ratioP1;P2;durP2;ratioP2
28724;SDS011;43472;48.980;9.646;2024-02-21T00:01:37;15.95;;;7.25;;
28724;SDS011;43472;48.980;9.646;2024-02-21T00:06:39;13.82;;;5.45;;
28724;SDS011;43472;48.980;9.646;2024-02-21T00:11:41;16.15;;;6.38;;
28724;SDS011;43472;48.980;9.646;2024-02-21T00:16:43;15.77;;;5.70;;
28724;SDS011;43472;48.980;9.646;2024-02-21T00:21:45;16.42;;;5.32;;
28724;SDS011;43472;48.980;9.646;2024-02-21T00:26:47;15.23;;;5.53;;
28724;SDS011;43472;48.980;9.646;2024-02-21T00:31:48;12.48;;;5.97;;
28724;SDS011;43472;48.980;9.646;2024-02-21T00:36:51;13.25;;;5.68;;
28724;SDS011;43472;48.980;9.646;2024-02-21T00:41:53;14.13;;;5.40;;
28724;SDS011;43472;48.980;9.646;2024-02-21T00:46:55;17.63;;;6.03;;
28724;SDS011;43472;48.980;9.646;2024-02-21T00:51:57;7.53;;;3.17;;
28724;SDS011;43472;48.980;9.646;2024-02-21T00:57:00;6.72;;;3.08;;
28724;SDS011;43472;48.980;9.646;2024-02-21T01:02:01;11.30;;;4.25;;
28724;SDS011;43472;48.980;9.646;2024-02-21T01:07:04;8.68;;;4.50;;
28724;SDS011;43472;48.980;9.646;2024-02-21T01:12:06;11.30;;;5.07;;
28724;SDS011;43472;48.980;9.646;2024-02-21T01:17:08;25.23;;;8.35;;
28724;SDS011;43472;48.980;9.646;2024-02-21T01:22:10;18.55;;;5.88;;
28724;SDS011;43472;48.980;9.646;2024-02-21T01:27:12;15.45;;;4.65;;
28724;SDS011;43472;48.980;9.646;2024-02-21T01:32:15;11.40;;;4.63;;
28724;SDS011;43472;48.980;9.646;2024-02-21T01:37:17;12.45;;;2.90;;
28724;SDS011;43472;48.980;9.646;2024-02-21T01:42:19;7.82;;;2.40;;
28724;SDS011;43472;48.980;9.646;2024-02-21T01:47:21;14.82;;;3.85;;
28724;SDS011;43472;48.980;9.646;2024-02-21T01:52:23;13.77;;;3.17;;
28724;SDS011;43472;48.980;9.646;2024-02-21T01:57:26;12.20;;;2.58;;
28724;SDS011;43472;48.980;9.646;2024-02-21T02:02:30;16.48;;;3.38;;
28724;SDS011;43472;48.980;9.646;2024-02-21T02:07:33;9.88;;;2.63;;
28724;SDS011;43472;48.980;9.646;2024-02-21T02:12:35;9.73;;;2.72;;
28724;SDS011;43472;48.980;9.646;2024-02-21T02:17:37;7.72;;;2.30;;
28724;SDS011;43472;48.980;9.646;2024-02-21T02:22:39;6.15;;;2.20;;
28724;SDS011;43472;48.980;9.646;2024-02-21T02:27:44;8.00;;;2.58;;
28724;SDS011;43472;48.980;9.646;2024-02-21T02:32:47;11.85;;;2.63;;
28724;SDS011;43472;48.980;9.646;2024-02-21T02:37:49;14.43;;;2.50;;
28724;SDS011;43472;48.980;9.646;2024-02-21T02:42:52;9.90;;;2.60;;
28724;SDS011;43472;48.980;9.646;2024-02-21T02:47:56;12.43;;;2.47;;
28724;SDS011;43472;48.980;9.646;2024-02-21T02:52:59;8.98;;;2.40;;
28724;SDS011;43472;48.980;9.646;2024-02-21T02:58:01;15.02;;;3.10;;
28724;SDS011;43472;48.980;9.646;2024-02-21T03:03:03;8.05;;;2.35;;
28724;SDS011;43472;48.980;9.646;2024-02-21T03:08:05;12.90;;;3.47;;
28724;SDS011;43472;48.980;9.646;2024-02-21T03:13:08;9.05;;;2.10;;
28724;SDS011;43472;48.980;9.646;2024-02-21T03:18:10;8.40;;;2.72;;
28724;SDS011;43472;48.980;9.646;2024-02-21T03:23:12;8.98;;;2.25;;
28724;SDS011;43472;48.980;9.646;2024-02-21T03:28:15;10.45;;;3.13;;
28724;SDS011;43472;48.980;9.646;2024-02-21T03:33:17;7.22;;;2.90;;
28724;SDS011;43472;48.980;9.646;2024-02-21T03:38:21;7.00;;;2.92;;
28724;SDS011;43472;48.980;9.646;2024-02-21T03:43:23;11.23;;;3.70;;
28724;SDS011;43472;48.980;9.646;2024-02-21T03:48:24;9.18;;;3.33;;
28724;SDS011;43472;48.980;9.646;2024-02-21T03:53:27;10.63;;;4.07;;
28724;SDS011;43472;48.980;9.646;2024-02-21T03:58:32;7.35;;;2.58;;
28724;SDS011;43472;48.980;9.646;2024-02-21T04:03:35;9.70;;;2.75;;
28724;SDS011;43472;48.980;9.646;2024-02-21T04:08:37;8.18;;;3.03;;
28724;SDS011;43472;48.980;9.646;2024-02-21T04:13:41;4.32;;;2.50;;
28724;SDS011;43472;48.980;9.646;2024-02-21T04:18:43;11.73;;;2.72;;
28724;SDS011;43472;48.980;9.646;2024-02-21T04:23:45;15.02;;;3.88;;
28724;SDS011;43472;48.980;9.646;2024-02-21T04:28:47;5.78;;;2.63;;
28724;SDS011;43472;48.980;9.646;2024-02-21T04:33:49;8.90;;;3.25;;
28724;SDS011;43472;48.980;9.646;2024-02-21T04:38:51;6.20;;;2.67;;
28724;SDS011;43472;48.980;9.646;2024-02-21T04:43:53;6.88;;;2.50;;
28724;SDS011;43472;48.980;9.646;2024-02-21T04:48:55;11.82;;;3.00;;
28724;SDS011;43472;48.980;9.646;2024-02-21T04:53:58;11.57;;;3.42;;
28724;SDS011;43472;48.980;9.646;2024-02-21T04:59:00;13.02;;;5.55;;
28724;SDS011;43472;48.980;9.646;2024-02-21T05:04:02;23.25;;;9.63;;
28724;SDS011;43472;48.980;9.646;2024-02-21T05:09:05;31.98;;;10.45;;
28724;SDS011;43472;48.980;9.646;2024-02-21T05:14:07;22.77;;;9.38;;
28724;SDS011;43472;48.980;9.646;2024-02-21T05:19:09;19.52;;;7.65;;
28724;SDS011;43472;48.980;9.646;2024-02-21T05:24:11;13.48;;;5.13;;
28724;SDS011;43472;48.980;9.646;2024-02-21T05:29:13;14.07;;;4.20;;
28724;SDS011;43472;48.980;9.646;2024-02-21T05:34:16;11.15;;;5.28;;
28724;SDS011;43472;48.980;9.646;2024-02-21T05:39:22;13.40;;;3.47;;
28724;SDS011;43472;48.980;9.646;2024-02-21T05:44:24;11.23;;;3.00;;
28724;SDS011;43472;48.980;9.646;2024-02-21T05:49:28;7.35;;;2.28;;
28724;SDS011;43472;48.980;9.646;2024-02-21T05:54:30;4.78;;;1.95;;
28724;SDS011;43472;48.980;9.646;2024-02-21T05:59:32;8.25;;;2.78;;
28724;SDS011;43472;48.980;9.646;2024-02-21T06:04:37;8.52;;;2.75;;
28724;SDS011;43472;48.980;9.646;2024-02-21T06:09:41;8.38;;;2.97;;
28724;SDS011;43472;48.980;9.646;2024-02-21T06:14:42;19.83;;;4.45;;
28724;SDS011;43472;48.980;9.646;2024-02-21T06:19:45;17.77;;;4.90;;
28724;SDS011;43472;48.980;9.646;2024-02-21T06:24:47;12.40;;;3.65;;
28724;SDS011;43472;48.980;9.646;2024-02-21T06:29:49;9.07;;;3.05;;
28724;SDS011;43472;48.980;9.646;2024-02-21T06:34:50;7.85;;;4.13;;
28724;SDS011;43472;48.980;9.646;2024-02-21T06:39:53;6.47;;;3.25;;
28724;SDS011;43472;48.980;9.646;2024-02-21T06:44:55;13.23;;;3.90;;
28724;SDS011;43472;48.980;9.646;2024-02-21T06:49:57;13.35;;;5.03;;
28724;SDS011;43472;48.980;9.646;2024-02-21T06:54:59;6.03;;;3.63;;
28724;SDS011;43472;48.980;9.646;2024-02-21T07:00:01;6.70;;;4.30;;
28724;SDS011;43472;48.980;9.646;2024-02-21T07:05:04;10.27;;;5.28;;
28724;SDS011;43472;48.980;9.646;2024-02-21T07:10:07;13.63;;;5.07;;
28724;SDS011;43472;48.980;9.646;2024-02-21T07:15:09;13.05;;;6.10;;
28724;SDS011;43472;48.980;9.646;2024-02-21T07:20:11;19.67;;;7.35;;
28724;SDS011;43472;48.980;9.646;2024-02-21T07:25:13;22.98;;;8.27;;
28724;SDS011;43472;48.980;9.646;2024-02-21T07:30:15;20.15;;;9.90;;
28724;SDS011;43472;48.980;9.646;2024-02-21T07:35:18;14.23;;;6.63;;
28724;SDS011;43472;48.980;9.646;2024-02-21T07:40:20;14.23;;;7.25;;
28724;SDS011;43472;48.980;9.646;2024-02-21T07:45:23;13.85;;;4.80;;
28724;SDS011;43472;48.980;9.646;2024-02-21T07:50:25;12.55;;;5.43;;
28724;SDS011;43472;48.980;9.646;2024-02-21T07:55:28;15.82;;;6.88;;
28724;SDS011;43472;48.980;9.646;2024-02-21T08:00:30;11.25;;;4.90;;
28724;SDS011;43472;48.980;9.646;2024-02-21T08:05:34;10.65;;;2.92;;
28724;SDS011;43472;48.980;9.646;2024-02-21T08:10:36;8.23;;;2.53;;
28724;SDS011;43472;48.980;9.646;2024-02-21T08:15:42;7.75;;;2.33;;
28724;SDS011;43472;48.980;9.646;2024-02-21T08:20:44;6.57;;;2.63;;
28724;SDS011;43472;48.980;9.646;2024-02-21T08:25:46;10.00;;;2.95;;
28724;SDS011;43472;48.980;9.646;2024-02-21T08:30:49;8.65;;;2.20;;
28724;SDS011;43472;48.980;9.646;2024-02-21T08:35:53;10.63;;;2.22;;
28724;SDS011;43472;48.980;9.646;2024-02-21T08:40:56;7.43;;;2.22;;
28724;SDS011;43472;48.980;9.646;2024-02-21T08:45:57;8.60;;;2.40;;
28724;SDS011;43472;48.980;9.646;2024-02-21T08:50:59;40.70;;;20.60;;
28724;SDS011;43472;48.980;9.646;2024-02-21T08:56:02;5.28;;;2.05;;
28724;SDS011;43472;48.980;9.646;2024-02-21T09:01:04;5.90;;;1.75;;
28724;SDS011;43472;48.980;9.646;2024-02-21T09:06:13;10.80;;;2.15;;
28724;SDS011;43472;48.980;9.646;2024-02-21T09:11:16;6.70;;;2.33;;
28724;SDS011;43472;48.980;9.646;2024-02-21T09:16:19;3.90;;;1.50;;
28724;SDS011;43472;48.980;9.646;2024-02-21T09:21:21;7.70;;;1.75;;
28724;SDS011;43472;48.980;9.646;2024-02-21T09:26:25;4.68;;;1.40;;
28724;SDS011;43472;48.980;9.646;2024-02-21T09:31:28;6.20;;;1.80;;
28724;SDS011;43472;48.980;9.646;2024-02-21T09:36:31;4.97;;;2.05;;
28724;SDS011;43472;48.980;9.646;2024-02-21T09:41:33;8.73;;;1.80;;
28724;SDS011;43472;48.980;9.646;2024-02-21T09:46:51;6.47;;;1.50;;
28724;SDS011;43472;48.980;9.646;2024-02-21T09:52:04;7.95;;;2.33;;
28724;SDS011;43472;48.980;9.646;2024-02-21T09:57:07;9.45;;;2.30;;
28724;SDS011;43472;48.980;9.646;2024-02-21T10:02:09;5.05;;;1.60;;
28724;SDS011;43472;48.980;9.646;2024-02-21T10:07:13;7.63;;;2.45;;
28724;SDS011;43472;48.980;9.646;2024-02-21T10:12:14;3.95;;;1.40;;
28724;SDS011;43472;48.980;9.646;2024-02-21T10:17:20;5.53;;;2.20;;
28724;SDS011;43472;48.980;9.646;2024-02-21T10:22:22;5.93;;;1.45;;
28724;SDS011;43472;48.980;9.646;2024-02-21T10:27:25;6.32;;;2.22;;
28724;SDS011;43472;48.980;9.646;2024-02-21T10:32:27;7.93;;;2.00;;
28724;SDS011;43472;48.980;9.646;2024-02-21T10:37:31;7.68;;;1.77;;
28724;SDS011;43472;48.980;9.646;2024-02-21T10:42:34;6.13;;;1.60;;
28724;SDS011;43472;48.980;9.646;2024-02-21T10:47:39;4.40;;;1.73;;
28724;SDS011;43472;48.980;9.646;2024-02-21T10:58:17;8.25;;;1.77;;
28724;SDS011;43472;48.980;9.646;2024-02-21T11:03:20;4.72;;;1.55;;
28724;SDS011;43472;48.980;9.646;2024-02-21T11:08:22;6.05;;;1.27;;
28724;SDS011;43472;48.980;9.646;2024-02-21T11:13:34;7.45;;;1.63;;
28724;SDS011;43472;48.980;9.646;2024-02-21T11:18:39;5.28;;;1.45;;
28724;SDS011;43472;48.980;9.646;2024-02-21T11:23:42;7.82;;;1.55;;
28724;SDS011;43472;48.980;9.646;2024-02-21T11:28:44;4.88;;;1.75;;
28724;SDS011;43472;48.980;9.646;2024-02-21T11:33:47;10.75;;;4.00;;
28724;SDS011;43472;48.980;9.646;2024-02-21T11:38:52;7.82;;;1.90;;
28724;SDS011;43472;48.980;9.646;2024-02-21T11:43:54;4.60;;;1.70;;
28724;SDS011;43472;48.980;9.646;2024-02-21T11:48:57;6.30;;;2.28;;
28724;SDS011;43472;48.980;9.646;2024-02-21T11:54:01;6.40;;;1.63;;
28724;SDS011;43472;48.980;9.646;2024-02-21T11:59:03;5.43;;;1.65;;
28724;SDS011;43472;48.980;9.646;2024-02-21T12:04:08;9.18;;;4.18;;
28724;SDS011;43472;48.980;9.646;2024-02-21T12:09:13;4.18;;;1.20;;
28724;SDS011;43472;48.980;9.646;2024-02-21T12:14:17;6.05;;;1.30;;
28724;SDS011;43472;48.980;9.646;2024-02-21T12:19:19;2.63;;;0.98;;
28724;SDS011;43472;48.980;9.646;2024-02-21T12:24:22;10.35;;;2.90;;
28724;SDS011;43472;48.980;9.646;2024-02-21T12:29:25;3.97;;;1.50;;
28724;SDS011;43472;48.980;9.646;2024-02-21T12:34:27;5.68;;;2.08;;
28724;SDS011;43472;48.980;9.646;2024-02-21T12:39:53;14.18;;;3.20;;
28724;SDS011;43472;48.980;9.646;2024-02-21T12:44:54;2.60;;;0.90;;
28724;SDS011;43472;48.980;9.646;2024-02-21T12:49:57;6.72;;;1.02;;
28724;SDS011;43472;48.980;9.646;2024-02-21T12:54:59;3.63;;;1.10;;
28724;SDS011;43472;48.980;9.646;2024-02-21T13:00:01;5.57;;;1.48;;
28724;SDS011;43472;48.980;9.646;2024-02-21T13:05:03;5.25;;;0.88;;
28724;SDS011;43472;48.980;9.646;2024-02-21T13:10:06;8.30;;;1.13;;
28724;SDS011;43472;48.980;9.646;2024-02-21T13:15:09;3.20;;;1.08;;
28724;SDS011;43472;48.980;9.646;2024-02-21T13:20:13;4.70;;;1.05;;
28724;SDS011;43472;48.980;9.646;2024-02-21T13:25:17;3.83;;;1.58;;
28724;SDS011;43472;48.980;9.646;2024-02-21T13:30:22;6.28;;;1.00;;
28724;SDS011;43472;48.980;9.646;2024-02-21T13:35:24;3.85;;;1.50;;
28724;SDS011;43472;48.980;9.646;2024-02-21T13:40:26;25.75;;;11.75;;
28724;SDS011;43472;48.980;9.646;2024-02-21T13:45:29;2.90;;;1.00;;
28724;SDS011;43472;48.980;9.646;2024-02-21T13:50:32;5.15;;;1.30;;
28724;SDS011;43472;48.980;9.646;2024-02-21T13:55:35;5.88;;;1.27;;
28724;SDS011;43472;48.980;9.646;2024-02-21T14:00:40;4.28;;;1.25;;
28724;SDS011;43472;48.980;9.646;2024-02-21T14:05:41;4.28;;;1.00;;
28724;SDS011;43472;48.980;9.646;2024-02-21T14:10:44;5.18;;;1.30;;
28724;SDS011;43472;48.980;9.646;2024-02-21T14:15:47;4.60;;;1.13;;
28724;SDS011;43472;48.980;9.646;2024-02-21T14:20:51;3.08;;;1.02;;
28724;SDS011;43472;48.980;9.646;2024-02-21T14:25:54;5.22;;;1.08;;
28724;SDS011;43472;48.980;9.646;2024-02-21T14:30:57;6.35;;;1.40;;
28724;SDS011;43472;48.980;9.646;2024-02-21T14:36:02;3.80;;;1.23;;
28724;SDS011;43472;48.980;9.646;2024-02-21T14:41:04;2.78;;;0.93;;
28724;SDS011;43472;48.980;9.646;2024-02-21T14:46:06;13.82;;;2.85;;
28724;SDS011;43472;48.980;9.646;2024-02-21T14:51:08;4.53;;;1.38;;
28724;SDS011;43472;48.980;9.646;2024-02-21T14:56:13;4.45;;;1.40;;
28724;SDS011;43472;48.980;9.646;2024-02-21T15:01:19;5.78;;;1.63;;
28724;SDS011;43472;48.980;9.646;2024-02-21T15:06:22;6.53;;;1.85;;
28724;SDS011;43472;48.980;9.646;2024-02-21T15:11:24;4.63;;;1.10;;
28724;SDS011;43472;48.980;9.646;2024-02-21T15:16:26;13.65;;;2.20;;
28724;SDS011;43472;48.980;9.646;2024-02-21T15:21:29;2.67;;;1.00;;
28724;SDS011;43472;48.980;9.646;2024-02-21T15:26:31;6.68;;;1.30;;
28724;SDS011;43472;48.980;9.646;2024-02-21T15:31:34;3.83;;;1.30;;
28724;SDS011;43472;48.980;9.646;2024-02-21T15:36:35;6.47;;;1.50;;
28724;SDS011;43472;48.980;9.646;2024-02-21T15:41:37;4.30;;;1.20;;
28724;SDS011;43472;48.980;9.646;2024-02-21T15:46:39;3.45;;;2.00;;
28724;SDS011;43472;48.980;9.646;2024-02-21T15:51:44;3.30;;;1.75;;
28724;SDS011;43472;48.980;9.646;2024-02-21T15:56:46;5.47;;;1.60;;
28724;SDS011;43472;48.980;9.646;2024-02-21T16:01:48;3.15;;;1.35;;
28724;SDS011;43472;48.980;9.646;2024-02-21T16:06:51;3.97;;;1.70;;
28724;SDS011;43472;48.980;9.646;2024-02-21T16:11:53;3.28;;;1.20;;
28724;SDS011;43472;48.980;9.646;2024-02-21T16:16:56;2.15;;;1.00;;
28724;SDS011;43472;48.980;9.646;2024-02-21T16:22:00;6.15;;;1.52;;
28724;SDS011;43472;48.980;9.646;2024-02-21T16:27:02;4.70;;;2.35;;
28724;SDS011;43472;48.980;9.646;2024-02-21T16:32:10;5.05;;;1.42;;
28724;SDS011;43472;48.980;9.646;2024-02-21T16:37:12;7.78;;;3.58;;
28724;SDS011;43472;48.980;9.646;2024-02-21T16:42:15;11.70;;;3.63;;
28724;SDS011;43472;48.980;9.646;2024-02-21T16:47:17;13.57;;;4.40;;
28724;SDS011;43472;48.980;9.646;2024-02-21T16:52:20;8.68;;;4.82;;
28724;SDS011;43472;48.980;9.646;2024-02-21T16:57:23;35.00;;;15.30;;
28724;SDS011;43472;48.980;9.646;2024-02-21T17:02:25;8.05;;;3.38;;
28724;SDS011;43472;48.980;9.646;2024-02-21T17:07:28;24.55;;;13.50;;
28724;SDS011;43472;48.980;9.646;2024-02-21T17:12:33;11.90;;;7.55;;
28724;SDS011;43472;48.980;9.646;2024-02-21T17:17:37;13.32;;;7.07;;
28724;SDS011;43472;48.980;9.646;2024-02-21T17:22:40;11.27;;;4.72;;
28724;SDS011;43472;48.980;9.646;2024-02-21T17:27:42;25.17;;;4.60;;
28724;SDS011;43472;48.980;9.646;2024-02-21T17:32:44;27.77;;;13.18;;
28724;SDS011;43472;48.980;9.646;2024-02-21T17:37:46;27.17;;;16.08;;
28724;SDS011;43472;48.980;9.646;2024-02-21T17:42:48;27.08;;;13.43;;
28724;SDS011;43472;48.980;9.646;2024-02-21T17:47:50;43.65;;;19.45;;
28724;SDS011;43472;48.980;9.646;2024-02-21T17:52:53;22.55;;;12.13;;
28724;SDS011;43472;48.980;9.646;2024-02-21T17:57:58;20.60;;;9.73;;
28724;SDS011;43472;48.980;9.646;2024-02-21T18:03:00;16.48;;;9.02;;
28724;SDS011;43472;48.980;9.646;2024-02-21T18:08:02;14.52;;;8.13;;
28724;SDS011;43472;48.980;9.646;2024-02-21T18:13:04;16.73;;;7.57;;
28724;SDS011;43472;48.980;9.646;2024-02-21T18:18:07;19.38;;;8.57;;
28724;SDS011;43472;48.980;9.646;2024-02-21T18:23:09;13.43;;;7.53;;
28724;SDS011;43472;48.980;9.646;2024-02-21T18:28:11;35.80;;;16.23;;
28724;SDS011;43472;48.980;9.646;2024-02-21T18:33:13;55.65;;;26.17;;
28724;SDS011;43472;48.980;9.646;2024-02-21T18:38:16;45.00;;;21.08;;
28724;SDS011;43472;48.980;9.646;2024-02-21T18:43:19;28.67;;;14.20;;
28724;SDS011;43472;48.980;9.646;2024-02-21T18:48:22;27.00;;;13.75;;
28724;SDS011;43472;48.980;9.646;2024-02-21T18:53:24;20.98;;;9.88;;
28724;SDS011;43472;48.980;9.646;2024-02-21T18:58:26;24.95;;;12.02;;
28724;SDS011;43472;48.980;9.646;2024-02-21T19:03:28;26.77;;;11.82;;
28724;SDS011;43472;48.980;9.646;2024-02-21T19:08:30;27.83;;;13.82;;
28724;SDS011;43472;48.980;9.646;2024-02-21T19:13:33;24.52;;;13.77;;
28724;SDS011;43472;48.980;9.646;2024-02-21T19:18:35;26.77;;;11.98;;
28724;SDS011;43472;48.980;9.646;2024-02-21T19:23:37;24.67;;;12.90;;
28724;SDS011;43472;48.980;9.646;2024-02-21T19:28:40;26.65;;;14.05;;
28724;SDS011;43472;48.980;9.646;2024-02-21T19:33:41;24.50;;;11.95;;
28724;SDS011;43472;48.980;9.646;2024-02-21T19:38:43;18.83;;;8.60;;
28724;SDS011;43472;48.980;9.646;2024-02-21T19:43:46;21.88;;;11.43;;
28724;SDS011;43472;48.980;9.646;2024-02-21T19:48:49;14.15;;;8.52;;
28724;SDS011;43472;48.980;9.646;2024-02-21T19:53:51;21.75;;;7.90;;
28724;SDS011;43472;48.980;9.646;2024-02-21T19:59:14;13.05;;;6.55;;
28724;SDS011;43472;48.980;9.646;2024-02-21T20:04:16;11.27;;;5.90;;
28724;SDS011;43472;48.980;9.646;2024-02-21T20:09:20;10.85;;;5.53;;
28724;SDS011;43472;48.980;9.646;2024-02-21T20:14:23;11.82;;;6.43;;
28724;SDS011;43472;48.980;9.646;2024-02-21T20:19:24;16.73;;;6.25;;
28724;SDS011;43472;48.980;9.646;2024-02-21T20:24:26;19.08;;;10.00;;
28724;SDS011;43472;48.980;9.646;2024-02-21T20:29:40;19.88;;;9.90;;
28724;SDS011;43472;48.980;9.646;2024-02-21T20:34:43;16.95;;;8.57;;
28724;SDS011;43472;48.980;9.646;2024-02-21T20:39:46;24.40;;;10.30;;
28724;SDS011;43472;48.980;9.646;2024-02-21T20:44:48;10.85;;;4.38;;
28724;SDS011;43472;48.980;9.646;2024-02-21T20:49:50;42.45;;;16.77;;
28724;SDS011;43472;48.980;9.646;2024-02-21T20:54:55;13.05;;;4.95;;
28724;SDS011;43472;48.980;9.646;2024-02-21T20:59:57;13.80;;;4.68;;
28724;SDS011;43472;48.980;9.646;2024-02-21T21:05:00;17.50;;;7.57;;
28724;SDS011;43472;48.980;9.646;2024-02-21T21:10:06;3.53;;;1.75;;
28724;SDS011;43472;48.980;9.646;2024-02-21T21:15:12;5.43;;;2.60;;
28724;SDS011;43472;48.980;9.646;2024-02-21T21:20:15;12.30;;;3.50;;
28724;SDS011;43472;48.980;9.646;2024-02-21T21:25:19;11.40;;;6.55;;
28724;SDS011;43472;48.980;9.646;2024-02-21T21:30:23;6.68;;;3.25;;
28724;SDS011;43472;48.980;9.646;2024-02-21T21:35:25;6.03;;;2.42;;
28724;SDS011;43472;48.980;9.646;2024-02-21T21:40:30;2.38;;;1.35;;
28724;SDS011;43472;48.980;9.646;2024-02-21T21:45:33;4.35;;;1.77;;
28724;SDS011;43472;48.980;9.646;2024-02-21T21:50:36;1.75;;;1.25;;
28724;SDS011;43472;48.980;9.646;2024-02-21T21:55:39;10.95;;;5.35;;
28724;SDS011;43472;48.980;9.646;2024-02-21T22:00:41;3.30;;;1.40;;
28724;SDS011;43472;48.980;9.646;2024-02-21T22:05:44;3.20;;;1.80;;
28724;SDS011;43472;48.980;9.646;2024-02-21T22:10:46;3.00;;;1.48;;
28724;SDS011;43472;48.980;9.646;2024-02-21T22:15:52;2.72;;;1.63;;
28724;SDS011;43472;48.980;9.646;2024-02-21T22:20:54;2.83;;;1.58;;
28724;SDS011;43472;48.980;9.646;2024-02-21T22:25:56;3.17;;;1.42;;
28724;SDS011;43472;48.980;9.646;2024-02-21T22:30:58;9.48;;;5.13;;
28724;SDS011;43472;48.980;9.646;2024-02-21T22:36:00;7.10;;;3.92;;
28724;SDS011;43472;48.980;9.646;2024-02-21T22:41:03;5.60;;;1.75;;
28724;SDS011;43472;48.980;9.646;2024-02-21T22:46:06;5.53;;;1.40;;
28724;SDS011;43472;48.980;9.646;2024-02-21T22:51:08;3.63;;;1.88;;
28724;SDS011;43472;48.980;9.646;2024-02-21T22:56:10;4.82;;;2.45;;
28724;SDS011;43472;48.980;9.646;2024-02-21T23:01:12;3.42;;;2.10;;
28724;SDS011;43472;48.980;9.646;2024-02-21T23:06:15;2.33;;;1.20;;
28724;SDS011;43472;48.980;9.646;2024-02-21T23:11:17;2.25;;;1.10;;
28724;SDS011;43472;48.980;9.646;2024-02-21T23:16:19;4.95;;;2.30;;
28724;SDS011;43472;48.980;9.646;2024-02-21T23:21:21;4.82;;;2.80;;
28724;SDS011;43472;48.980;9.646;2024-02-21T23:26:27;4.55;;;1.58;;
28724;SDS011;43472;48.980;9.646;2024-02-21T23:31:31;9.18;;;1.58;;
28724;SDS011;43472;48.980;9.646;2024-02-21T23:36:33;6.65;;;2.42;;
28724;SDS011;43472;48.980;9.646;2024-02-21T23:41:37;4.47;;;1.52;;
28724;SDS011;43472;48.980;9.646;2024-02-21T23:46:39;1.05;;;0.80;;
28724;SDS011;43472;48.980;9.646;2024-02-21T23:51:42;1.88;;;1.00;;
28724;SDS011;43472;48.980;9.646;2024-02-21T23:56:44;1.02;;;0.80;;
